Time;durP1;ratioP1;P1;durP2;ratioP2;P2;SDS_P1;SDS_P2;PMS_P1;PMS_P2;Temp;Humidity;BMP_temperature;BMP_pressure;BME280_temperature;BME280_humidity;BME280_pressure;Samples;Min_cycle;Max_cycle;Signal;HPM_P1;HPM_P2
2022/08/17 00:02:01;;;;;;;8.87;7.97;;;23.20;99.90;;;;;;5034717;28;20467;-75
2022/08/17 00:04:28;;;;;;;9.53;8.70;;;23.20;99.90;;;;;;5038101;28;20456;-75
2022/08/17 00:06:56;;;;;;;8.33;6.03;;;23.20;99.90;;;;;;5043160;28;20460;-75
2022/08/17 00:09:22;;;;;;;8.77;6.97;;;23.20;99.90;;;;;;5043678;28;20513;-75
2022/08/17 00:11:51;;;;;;;7.80;6.50;;;23.10;99.90;;;;;;5033646;28;20458;-75
2022/08/17 00:14:19;;;;;;;7.87;6.37;;;22.80;99.90;;;;;;5042474;28;20831;-75
2022/08/17 00:16:48;;;;;;;10.30;6.93;;;22.70;99.90;;;;;;5042154;28;20520;-75
2022/08/17 00:19:20;;;;;;;13.03;6.40;;;22.50;99.90;;;;;;5034331;28;21028;-75
2022/08/17 00:21:47;;;;;;;10.53;7.03;;;22.70;99.90;;;;;;5040881;28;20555;-75
2022/08/17 00:24:17;;;;;;;7.43;6.73;;;22.90;99.90;;;;;;5042788;28;21256;-75
2022/08/17 00:26:45;;;;;;;7.40;6.70;;;23.10;99.90;;;;;;5038673;28;20461;-75
2022/08/17 00:29:14;;;;;;;7.83;6.50;;;23.20;99.90;;;;;;5032686;28;20477;-76
2022/08/17 00:31:41;;;;;;;8.07;7.20;;;23.30;99.90;;;;;;5037266;28;20460;-74
2022/08/17 00:34:08;;;;;;;13.67;6.93;;;23.40;99.90;;;;;;5037820;28;20590;-75
2022/08/17 00:36:36;;;;;;;9.50;7.00;;;23.40;99.90;;;;;;5037533;28;20461;-75
2022/08/17 00:39:03;;;;;;;7.33;6.63;;;23.40;99.90;;;;;;5034180;28;20456;-74
2022/08/17 00:41:30;;;;;;;8.77;7.03;;;23.50;99.90;;;;;;5040369;28;20542;-75
2022/08/17 00:43:59;;;;;;;7.90;7.17;;;23.50;99.90;;;;;;5043340;28;20489;-75
2022/08/17 00:46:30;;;;;;;9.83;6.13;;;23.20;99.90;;;;;;5036098;28;20798;-75
2022/08/17 00:48:57;;;;;;;6.73;5.57;;;23.00;99.90;;;;;;5041401;28;20556;-73
2022/08/17 00:51:30;;;;;;;11.53;5.87;;;22.80;99.90;;;;;;5037240;28;20458;-74
2022/08/17 00:54:03;;;;;;;8.27;7.23;;;22.50;99.90;;;;;;5029841;28;20469;-74
2022/08/17 00:56:34;;;;;;;7.73;6.47;;;22.40;99.90;;;;;;5032661;28;20468;-74
2022/08/17 00:59:02;;;;;;;8.57;6.67;;;22.50;99.90;;;;;;5042763;28;20436;-74
2022/08/17 01:01:31;;;;;;;9.27;7.83;;;22.60;99.90;;;;;;5037909;28;20459;-74
2022/08/17 01:03:59;;;;;;;13.63;7.90;;;22.70;99.90;;;;;;5034879;28;21032;-74
2022/08/17 01:06:27;;;;;;;8.30;7.50;;;22.60;99.90;;;;;;5038900;28;20719;-73
2022/08/17 01:08:55;;;;;;;8.83;7.50;;;22.60;99.90;;;;;;5043326;28;20468;-74
2022/08/17 01:11:22;;;;;;;10.40;7.67;;;22.50;99.90;;;;;;5036158;28;20467;-74
2022/08/17 01:13:49;;;;;;;10.10;8.30;;;22.70;99.90;;;;;;5040245;28;20462;-74
2022/08/17 01:16:20;;;;;;;11.90;7.77;;;22.80;99.90;;;;;;5044173;28;20834;-74
2022/08/17 01:18:50;;;;;;;12.03;7.53;;;22.80;99.90;;;;;;5042291;28;20457;-74
2022/08/17 01:21:23;;;;;;;10.40;7.30;;;22.80;99.90;;;;;;5034324;28;20928;-75
2022/08/17 01:23:52;;;;;;;12.20;8.10;;;22.80;99.90;;;;;;5034224;28;20458;-74
2022/08/17 01:26:19;;;;;;;10.50;8.20;;;22.80;99.90;;;;;;5035824;28;21283;-74
2022/08/17 01:28:46;;;;;;;9.13;8.20;;;22.60;99.90;;;;;;5037566;28;20468;-73
2022/08/17 01:31:13;;;;;;;7.83;6.47;;;22.40;99.90;;;;;;5039572;28;20453;-74
2022/08/17 01:33:40;;;;;;;10.80;6.73;;;22.10;99.90;;;;;;5036564;28;20471;-74
2022/08/17 01:36:08;;;;;;;9.03;7.50;;;22.00;99.90;;;;;;5030558;28;20484;-74
2022/08/17 01:38:35;;;;;;;12.40;9.23;;;22.00;99.90;;;;;;5037339;28;20792;-74
2022/08/17 01:41:08;;;;;;;9.33;7.63;;;21.90;99.90;;;;;;5040268;28;20996;-74
2022/08/17 01:43:39;;;;;;;12.60;9.47;;;22.00;99.90;;;;;;5041072;28;20556;-74
2022/08/17 01:46:06;;;;;;;14.10;7.90;;;22.00;99.90;;;;;;5038232;28;20819;-74
2022/08/17 01:48:36;;;;;;;26.50;9.73;;;22.00;99.90;;;;;;5041758;28;20982;-75
2022/08/17 01:51:03;;;;;;;14.80;9.17;;;22.00;99.90;;;;;;5039598;28;20480;-74
2022/08/17 01:53:34;;;;;;;8.93;7.60;;;21.90;99.90;;;;;;5041649;28;20460;-75
2022/08/17 01:56:06;;;;;;;11.60;9.33;;;21.90;99.90;;;;;;5039373;28;20484;-74
2022/08/17 01:58:35;;;;;;;20.30;9.27;;;22.00;99.90;;;;;;5038192;28;20464;-75
2022/08/17 02:01:04;;;;;;;7.90;6.97;;;21.80;99.90;;;;;;5043470;28;20489;-75
2022/08/17 02:03:33;;;;;;;14.90;7.37;;;21.80;99.90;;;;;;5034017;28;20532;-75
2022/08/17 02:06:00;;;;;;;10.00;8.53;;;21.80;99.90;;;;;;5036628;28;20480;-74
2022/08/17 02:08:27;;;;;;;8.17;7.40;;;21.80;99.90;;;;;;5041083;28;20468;-75
2022/08/17 02:10:55;;;;;;;7.20;6.50;;;21.60;99.90;;;;;;5044658;28;20484;-75
2022/08/17 02:13:26;;;;;;;11.13;8.20;;;21.60;99.90;;;;;;5040160;28;20464;-75
2022/08/17 02:15:54;;;;;;;11.70;8.47;;;21.60;99.90;;;;;;5044020;28;20885;-74
2022/08/17 02:18:20;;;;;;;9.17;8.20;;;21.60;99.90;;;;;;5043296;28;20468;-74
2022/08/17 02:20:47;;;;;;;9.93;8.73;;;21.60;99.90;;;;;;5042318;28;20576;-75
2022/08/17 02:23:14;;;;;;;17.10;7.77;;;21.70;99.90;;;;;;5041057;28;20460;-75
2022/08/17 02:25:46;;;;;;;8.20;7.40;;;21.60;99.90;;;;;;5040817;28;20444;-74
2022/08/17 02:28:13;;;;;;;10.60;7.50;;;21.40;99.90;;;;;;5036266;28;20484;-74
2022/08/17 02:30:41;;;;;;;10.20;9.23;;;21.40;99.90;;;;;;5039616;28;20463;-74
2022/08/17 02:33:08;;;;;;;9.70;8.70;;;21.40;99.90;;;;;;5039882;28;21040;-75
2022/08/17 02:35:35;;;;;;;8.73;7.90;;;21.30;99.90;;;;;;5043836;28;20481;-75
2022/08/17 02:38:03;;;;;;;10.73;8.77;;;21.20;99.90;;;;;;5040204;28;20463;-74
2022/08/17 02:40:30;;;;;;;9.80;8.80;;;21.30;99.90;;;;;;5043917;28;20479;-75
2022/08/17 02:42:57;;;;;;;11.63;9.47;;;21.40;99.90;;;;;;5044592;28;21001;-74
2022/08/17 02:45:24;;;;;;;9.13;7.40;;;21.20;99.90;;;;;;5041006;28;20463;-74
2022/08/17 02:47:53;;;;;;;11.17;8.30;;;21.20;99.90;;;;;;5047196;28;20435;-75
2022/08/17 02:50:22;;;;;;;9.53;8.50;;;21.20;99.90;;;;;;5041774;28;20488;-74
2022/08/17 02:52:51;;;;;;;11.50;9.97;;;21.20;99.90;;;;;;5039313;28;20975;-75
2022/08/17 02:55:20;;;;;;;14.93;10.00;;;21.20;99.90;;;;;;5034766;28;20888;-74
2022/08/17 02:57:48;;;;;;;12.77;10.07;;;21.30;99.90;;;;;;5043543;28;20468;-73
2022/08/17 03:00:21;;;;;;;14.07;9.83;;;21.20;99.90;;;;;;5036829;28;20781;-73
2022/08/17 03:02:48;;;;;;;9.90;8.77;;;21.10;99.90;;;;;;5039269;28;20511;-74
2022/08/17 03:05:20;;;;;;;11.17;10.00;;;21.20;99.90;;;;;;5028320;28;20459;-73
2022/08/17 03:07:47;;;;;;;13.60;9.20;;;21.30;99.90;;;;;;5038151;28;20867;-75
2022/08/17 03:10:15;;;;;;;13.53;10.10;;;21.40;99.90;;;;;;5044070;28;20547;-75
2022/08/17 03:12:42;;;;;;;11.07;9.57;;;21.40;99.90;;;;;;5049278;28;20448;-73
2022/08/17 03:15:12;;;;;;;8.37;7.17;;;21.40;99.90;;;;;;5046699;28;20484;-74
2022/08/17 03:17:38;;;;;;;14.27;9.20;;;21.40;99.90;;;;;;5032732;28;20809;-75
2022/08/17 03:20:07;;;;;;;12.83;9.20;;;21.40;99.90;;;;;;5034356;28;20487;-73
2022/08/17 03:22:38;;;;;;;13.90;11.53;;;21.50;99.90;;;;;;5039780;28;20666;-75
2022/08/17 03:25:08;;;;;;;12.23;9.20;;;21.50;99.90;;;;;;5036642;28;20831;-74
2022/08/17 03:27:35;;;;;;;12.50;11.20;;;21.50;99.90;;;;;;5036307;28;20452;-74
2022/08/17 03:30:02;;;;;;;16.23;11.07;;;21.40;99.90;;;;;;5040237;28;20479;-73
2022/08/17 03:32:29;;;;;;;16.57;12.50;;;21.40;99.90;;;;;;5046577;28;20455;-74
2022/08/17 03:34:59;;;;;;;13.40;11.80;;;21.50;99.90;;;;;;5047912;28;20484;-74
2022/08/17 03:37:26;;;;;;;17.63;11.10;;;21.50;99.90;;;;;;5043682;28;20461;-74
2022/08/17 03:39:54;;;;;;;12.33;9.73;;;21.40;99.90;;;;;;5046404;28;20476;-74
2022/08/17 03:42:23;;;;;;;12.33;9.93;;;21.20;99.90;;;;;;5041830;28;20484;-74
2022/08/17 03:44:51;;;;;;;12.67;11.40;;;21.30;99.90;;;;;;5045965;28;20459;-75
2022/08/17 03:58:19;;;;;;;16.23;11.83;;;21.50;99.90;;;;;;5044978;28;20521;-73
2022/08/17 04:00:46;;;;;;;13.90;10.00;;;21.40;99.90;;;;;;5039636;28;20492;-73
2022/08/17 04:03:14;;;;;;;12.07;10.30;;;21.40;99.90;;;;;;5036703;28;20457;-74
2022/08/17 04:05:41;;;;;;;15.87;11.20;;;21.40;99.90;;;;;;5036050;28;20461;-73
2022/08/17 04:08:08;;;;;;;12.57;10.43;;;21.50;99.90;;;;;;5037422;28;20468;-74
2022/08/17 04:10:38;;;;;;;12.17;10.20;;;21.40;99.90;;;;;;5035494;28;20487;-74
2022/08/17 04:13:05;;;;;;;13.30;10.70;;;21.40;99.90;;;;;;5039353;28;20474;-74
2022/08/17 04:15:32;;;;;;;12.80;10.03;;;21.30;99.90;;;;;;5042728;28;20487;-74
2022/08/17 04:17:59;;;;;;;15.17;10.07;;;21.30;99.90;;;;;;5044885;28;20565;-74
2022/08/17 04:20:27;;;;;;;16.70;11.07;;;21.30;99.90;;;;;;5036482;28;20488;-74
2022/08/17 04:23:00;;;;;;;12.30;10.20;;;21.40;99.90;;;;;;5037545;28;20468;-74
2022/08/17 04:25:29;;;;;;;10.60;9.30;;;21.30;99.90;;;;;;5038598;28;20463;-74
2022/08/17 04:27:58;;;;;;;13.23;10.40;;;21.30;99.90;;;;;;5036324;28;20472;-73
2022/08/17 04:30:27;;;;;;;12.80;10.40;;;21.30;99.90;;;;;;5041001;28;20856;-74
2022/08/17 04:32:57;;;;;;;16.33;9.47;;;21.30;99.90;;;;;;5035565;28;20464;-74
2022/08/17 04:35:26;;;;;;;14.20;9.83;;;21.30;99.90;;;;;;5038188;28;20506;-74
2022/08/17 04:37:53;;;;;;;14.17;10.90;;;21.40;99.90;;;;;;5033306;28;20467;-73
2022/08/17 04:43:10;;;;;;;13.27;10.73;;;21.30;99.90;;;;;;5038314;28;20491;-74
2022/08/17 04:45:44;;;;;;;13.80;9.70;;;21.40;99.90;;;;;;5037883;28;21379;-74
2022/08/17 04:48:11;;;;;;;11.17;9.40;;;21.40;99.90;;;;;;5035393;28;20464;-72
2022/08/17 04:50:42;;;;;;;11.20;9.00;;;21.40;99.90;;;;;;5037194;28;20480;-73
2022/08/17 04:53:09;;;;;;;20.83;11.33;;;21.40;99.90;;;;;;5045283;28;20444;-73
2022/08/17 04:55:36;;;;;;;13.53;10.37;;;21.40;99.90;;;;;;5043372;28;20479;-74
2022/08/17 04:58:04;;;;;;;13.20;10.50;;;21.40;99.90;;;;;;5042088;28;20466;-73
2022/08/17 05:00:32;;;;;;;17.10;10.40;;;21.50;99.90;;;;;;5046799;28;20632;-74
2022/08/17 05:03:00;;;;;;;12.00;10.70;;;21.50;99.90;;;;;;5042359;28;20447;-74
2022/08/17 05:05:29;;;;;;;14.30;9.30;;;21.50;99.90;;;;;;5045088;28;20502;-74
2022/08/17 05:07:57;;;;;;;20.03;10.33;;;21.60;99.90;;;;;;5040430;28;20464;-74
2022/08/17 05:10:26;;;;;;;19.77;10.80;;;21.60;99.90;;;;;;5043941;28;20476;-74
2022/08/17 05:12:58;;;;;;;16.87;10.80;;;21.60;99.90;;;;;;5045152;28;20459;-74
2022/08/17 05:15:25;;;;;;;11.43;9.50;;;21.60;99.90;;;;;;5044500;28;20839;-74
2022/08/17 05:17:53;;;;;;;11.90;8.93;;;21.80;99.90;;;;;;5046172;28;20456;-74
2022/08/17 05:20:20;;;;;;;15.53;9.77;;;21.80;99.90;;;;;;5046772;28;20468;-74
2022/08/17 05:22:49;;;;;;;16.03;9.80;;;21.90;99.90;;;;;;5048826;28;20457;-74
2022/08/17 05:25:19;;;;;;;16.10;10.00;;;21.90;99.90;;;;;;5047696;28;20485;-74
2022/08/17 05:27:45;;;;;;;12.77;8.67;;;22.00;99.90;;;;;;5049496;28;20443;-74
2022/08/17 05:30:13;;;;;;;13.63;9.50;;;22.10;99.90;;;;;;5047443;28;20445;-74
2022/08/17 05:32:49;;;;;;;13.20;8.87;;;22.10;99.90;;;;;;5051367;28;20441;-74
2022/08/17 05:35:18;;;;;;;10.50;8.77;;;22.20;99.90;;;;;;5046580;28;20536;-74
2022/08/17 05:37:44;;;;;;;14.10;9.23;;;22.30;99.90;;;;;;5047524;28;20539;-74
2022/08/17 05:40:12;;;;;;;15.73;9.57;;;22.40;99.90;;;;;;5052728;28;20463;-76
2022/08/17 05:42:39;;;;;;;17.50;8.80;;;22.40;99.90;;;;;;5047574;28;20984;-74
2022/08/17 05:45:07;;;;;;;9.23;8.30;;;22.40;99.90;;;;;;5049967;28;20481;-74
2022/08/17 05:47:34;;;;;;;10.53;9.23;;;22.50;99.90;;;;;;5049194;28;20452;-74
2022/08/17 05:50:02;;;;;;;10.57;8.10;;;22.60;99.90;;;;;;5049323;28;20559;-74
2022/08/17 05:52:39;;;;;;;16.50;9.63;;;22.70;99.90;;;;;;5045531;28;20997;-75
2022/08/17 05:55:17;;;;;;;9.80;8.10;;;22.80;99.90;;;;;;5046303;28;20444;-74
2022/08/17 05:57:55;;;;;;;11.37;8.00;;;22.80;99.90;;;;;;5043751;28;20442;-74
2022/08/17 06:00:25;;;;;;;13.73;8.60;;;22.90;99.90;;;;;;5045696;28;20478;-74
2022/08/17 06:03:16;;;;;;;8.90;7.77;;;23.00;99.90;;;;;;5044374;28;20460;-75
2022/08/17 06:05:54;;;;;;;17.70;10.33;;;23.10;99.90;;;;;;5046806;28;20447;-74
2022/08/17 06:08:30;;;;;;;11.00;8.10;;;23.30;99.90;;;;;;5044081;28;20465;-74
2022/08/17 06:11:07;;;;;;;17.07;8.40;;;23.50;99.90;;;;;;5049022;28;20475;-74
2022/08/17 06:13:52;;;;;;;11.13;7.70;;;23.60;99.90;;;;;;5049773;28;20448;-73
2022/08/17 06:16:25;;;;;;;9.03;7.67;;;23.90;99.90;;;;;;5041026;28;20522;-73
2022/08/17 06:18:58;;;;;;;11.90;7.87;;;23.90;99.90;;;;;;5045099;28;20869;-74
2022/08/17 06:21:28;;;;;;;15.70;8.27;;;23.70;99.90;;;;;;5049985;28;20446;-74
2022/08/17 06:24:02;;;;;;;10.20;7.37;;;23.90;99.90;;;;;;5045844;28;20469;-73
2022/08/17 06:26:33;;;;;;;9.77;6.30;;;24.10;99.90;;;;;;5045922;28;20843;-74
2022/08/17 06:29:03;;;;;;;8.13;7.20;;;24.10;99.90;;;;;;5046149;28;20455;-74
2022/08/17 06:31:34;;;;;;;8.23;6.23;;;24.30;99.90;;;;;;5043632;28;20906;-74
2022/08/17 06:34:03;;;;;;;8.30;7.10;;;24.20;99.90;;;;;;5043052;28;20472;-74
2022/08/17 06:36:48;;;;;;;10.60;6.30;;;24.30;99.90;;;;;;5047785;28;20492;-74
2022/08/17 06:39:26;;;;;;;8.20;6.57;;;24.90;99.90;;;;;;5043722;28;20471;-73
2022/08/17 06:42:02;;;;;;;7.17;6.27;;;25.10;99.90;;;;;;5045783;28;20570;-74
2022/08/17 06:44:38;;;;;;;7.27;6.50;;;25.50;99.90;;;;;;5050384;28;20820;-75
2022/08/17 06:47:12;;;;;;;9.77;6.63;;;25.60;99.90;;;;;;5048770;28;20445;-74
2022/08/17 06:49:44;;;;;;;9.77;5.90;;;25.50;99.90;;;;;;5047554;28;20473;-75
2022/08/17 06:52:18;;;;;;;7.50;5.47;;;24.80;99.90;;;;;;5050047;28;20465;-75
2022/08/17 06:54:53;;;;;;;8.63;6.20;;;24.40;99.90;;;;;;5053111;28;20447;-74
2022/08/17 06:57:23;;;;;;;9.60;6.37;;;24.40;99.90;;;;;;5047709;28;20485;-74
2022/08/17 06:59:55;;;;;;;6.97;6.37;;;24.30;99.90;;;;;;5047346;28;20481;-74
2022/08/17 07:02:36;;;;;;;13.47;7.33;;;24.50;99.90;;;;;;5045830;28;20454;-75
2022/08/17 07:05:05;;;;;;;7.57;6.20;;;24.70;99.90;;;;;;5048288;28;20448;-75
2022/08/17 07:10:20;;;;;;;15.33;6.30;;;24.60;99.90;;;;;;5047552;28;20493;-74
2022/08/17 07:12:50;;;;;;;9.40;6.00;;;24.50;99.90;;;;;;5045840;28;20467;-75
2022/08/17 07:15:23;;;;;;;7.60;6.83;;;24.40;99.90;;;;;;5046349;28;20459;-74
2022/08/17 07:17:50;;;;;;;7.03;6.20;;;24.30;99.90;;;;;;5043560;28;20514;-75
2022/08/17 07:20:21;;;;;;;7.13;6.10;;;24.50;99.90;;;;;;5048221;28;21720;-75
2022/08/17 07:22:55;;;;;;;6.67;5.37;;;24.60;99.90;;;;;;5050908;28;20528;-74
2022/08/17 07:25:23;;;;;;;11.70;5.50;;;24.50;99.90;;;;;;5049976;28;20464;-75
2022/08/17 07:27:53;;;;;;;7.43;5.70;;;24.60;99.90;;;;;;5045330;28;20831;-75
2022/08/17 07:30:22;;;;;;;8.67;5.70;;;24.40;99.90;;;;;;5044435;28;20469;-74
2022/08/17 07:32:52;;;;;;;6.10;5.50;;;24.30;99.90;;;;;;5048573;28;20443;-73
2022/08/17 07:35:21;;;;;;;8.30;5.23;;;24.40;99.90;;;;;;5044763;28;20466;-75
2022/08/17 07:37:53;;;;;;;7.67;5.77;;;24.60;99.90;;;;;;5045209;28;20485;-75
2022/08/17 07:40:32;;;;;;;5.40;4.90;;;24.80;99.90;;;;;;5043320;28;21022;-74
2022/08/17 07:43:24;;;;;;;5.73;5.13;;;24.80;99.90;;;;;;5047639;28;20539;-74
2022/08/17 07:49:20;;;;;;;6.87;5.67;;;24.60;99.90;;;;;;5046624;28;20459;-75
2022/08/17 07:51:57;;;;;;;6.33;5.73;;;24.70;99.90;;;;;;5048173;28;20439;-75
2022/08/17 07:54:28;;;;;;;6.40;5.23;;;24.90;99.90;;;;;;5043624;28;20457;-75
2022/08/17 07:56:59;;;;;;;11.67;6.20;;;25.00;99.90;;;;;;5041705;28;20483;-74
2022/08/17 07:59:28;;;;;;;8.77;6.53;;;25.20;99.90;;;;;;5051232;28;20952;-75
2022/08/17 08:02:27;;;;;;;15.53;7.30;;;25.10;99.90;;;;;;5045621;28;20461;-73
2022/08/17 08:05:03;;;;;;;10.50;5.83;;;25.30;99.90;;;;;;5009308;28;20453;-75
2022/08/17 08:07:35;;;;;;;14.80;7.07;;;25.60;99.90;;;;;;5044992;28;20527;-75
2022/08/17 08:10:08;;;;;;;13.53;6.23;;;26.00;99.90;;;;;;5038092;28;20492;-75
2022/08/17 08:12:39;;;;;;;8.13;5.67;;;26.50;99.90;;;;;;5047046;28;20452;-75
2022/08/17 08:15:16;;;;;;;6.93;5.70;;;26.80;99.90;;;;;;5044867;28;20466;-75
2022/08/17 08:17:50;;;;;;;7.87;6.70;;;27.10;99.90;;;;;;5041970;28;21037;-74
2022/08/17 08:20:18;;;;;;;11.40;6.83;;;27.20;99.90;;;;;;5044196;28;20457;-74
2022/08/17 08:22:55;;;;;;;16.50;5.67;;;27.40;99.90;;;;;;5046335;28;20569;-75
2022/08/17 08:25:26;;;;;;;10.13;5.03;;;27.40;99.90;;;;;;5042640;28;20811;-74
2022/08/17 08:28:09;;;;;;;12.07;6.90;;;27.60;99.90;;;;;;5039439;28;20474;-74
2022/08/17 08:30:43;;;;;;;8.53;6.00;;;27.50;99.90;;;;;;5044065;28;20851;-74
2022/08/17 08:33:26;;;;;;;7.80;5.37;;;28.00;99.90;;;;;;5045575;28;20974;-74
2022/08/17 08:35:58;;;;;;;6.50;5.60;;;28.50;99.90;;;;;;5044303;28;20475;-75
2022/08/17 08:38:36;;;;;;;7.67;5.30;;;28.50;99.90;;;;;;5046889;28;20490;-74
2022/08/17 08:41:22;;;;;;;16.70;5.23;;;28.20;99.90;;;;;;5041205;28;21019;-74
2022/08/17 08:44:02;;;;;;;6.87;4.50;;;28.40;99.90;;;;;;5039704;28;20955;-74
2022/08/17 08:46:35;;;;;;;7.10;5.50;;;28.40;99.90;;;;;;5043782;28;20498;-74
2022/08/17 08:49:21;;;;;;;12.93;5.57;;;29.10;99.90;;;;;;5045319;28;20448;-75
2022/08/17 08:51:54;;;;;;;6.87;5.10;;;30.40;99.90;;;;;;5046132;28;20458;-74
2022/08/17 08:54:35;;;;;;;7.27;5.10;;;30.50;99.90;;;;;;5044771;28;20459;-75
2022/08/17 08:57:16;;;;;;;5.90;4.17;;;31.00;99.90;;;;;;5043869;28;20479;-74
2022/08/17 08:59:57;;;;;;;4.17;3.50;;;31.10;99.90;;;;;;5045149;28;20477;-74
2022/08/17 09:02:41;;;;;;;12.70;4.73;;;32.10;99.90;;;;;;5045463;28;20893;-75
2022/08/17 09:05:21;;;;;;;4.63;4.10;;;32.40;98.20;;;;;;5045742;28;20451;-74
2022/08/17 09:07:57;;;;;;;4.50;4.10;;;32.60;97.20;;;;;;5040747;28;20452;-74
2022/08/17 09:10:29;;;;;;;4.37;3.97;;;32.50;96.90;;;;;;5046672;28;20482;-74
2022/08/17 09:13:06;;;;;;;4.13;3.77;;;32.30;96.90;;;;;;5046802;28;20530;-74
2022/08/17 09:15:40;;;;;;;3.93;3.63;;;31.80;96.80;;;;;;5045124;28;20448;-74
2022/08/17 09:18:15;;;;;;;4.60;3.50;;;31.50;96.30;;;;;;5045859;28;20544;-74
2022/08/17 09:20:47;;;;;;;5.83;4.40;;;31.80;96.20;;;;;;5048794;28;20984;-74
2022/08/17 09:23:25;;;;;;;4.60;3.73;;;32.00;95.70;;;;;;5045986;28;20443;-75
2022/08/17 09:26:00;;;;;;;6.27;4.50;;;32.20;94.90;;;;;;5046266;28;20451;-75
2022/08/17 09:28:33;;;;;;;6.90;3.80;;;32.20;94.40;;;;;;5047710;28;20458;-74
2022/08/17 09:31:07;;;;;;;4.50;4.10;;;32.20;94.80;;;;;;5040882;28;20467;-74
2022/08/17 09:33:43;;;;;;;6.00;4.10;;;31.60;95.10;;;;;;5045682;28;20435;-73
2022/08/17 09:36:15;;;;;;;7.03;4.20;;;31.00;96.00;;;;;;5043617;28;20452;-74
2022/08/17 09:38:52;;;;;;;5.60;4.10;;;30.70;96.60;;;;;;5041179;28;21065;-74
2022/08/17 09:41:26;;;;;;;4.30;3.90;;;30.30;96.80;;;;;;5046170;28;20933;-74
2022/08/17 09:43:58;;;;;;;5.40;4.90;;;30.10;97.30;;;;;;5045105;28;20469;-74
2022/08/17 09:46:32;;;;;;;9.47;6.87;;;29.80;97.60;;;;;;5041655;28;20487;-75
2022/08/17 09:49:08;;;;;;;6.37;4.60;;;29.60;98.70;;;;;;5045266;28;20947;-74
2022/08/17 09:51:52;;;;;;;6.60;4.50;;;29.50;98.20;;;;;;5046534;28;20453;-74
2022/08/17 09:54:23;;;;;;;4.87;4.10;;;29.30;98.70;;;;;;5040139;28;20440;-74
2022/08/17 09:57:00;;;;;;;8.17;4.67;;;28.90;99.40;;;;;;5043054;28;20444;-74
2022/08/17 09:59:39;;;;;;;7.40;4.60;;;28.80;99.90;;;;;;5041908;28;20483;-75
2022/08/17 10:02:29;;;;;;;7.07;5.53;;;28.90;99.90;;;;;;5043585;28;20470;-74
2022/08/17 10:05:03;;;;;;;9.03;4.80;;;29.00;99.90;;;;;;5046344;28;20842;-75
2022/08/17 10:07:36;;;;;;;5.50;5.00;;;29.10;99.90;;;;;;5042644;28;20499;-74
2022/08/17 10:10:12;;;;;;;4.43;3.70;;;29.10;99.90;;;;;;5044823;28;20968;-75
2022/08/17 10:12:46;;;;;;;6.07;5.03;;;28.90;99.90;;;;;;5043397;28;20443;-74
2022/08/17 10:15:23;;;;;;;5.50;5.00;;;28.90;99.90;;;;;;5048838;28;20530;-74
2022/08/17 10:18:08;;;;;;;9.00;4.63;;;28.80;99.90;;;;;;5045768;28;20487;-75
2022/08/17 10:20:42;;;;;;;6.47;4.80;;;28.70;99.90;;;;;;5043887;28;20489;-75
2022/08/17 10:26:13;;;;;;;8.00;4.50;;;28.80;99.90;;;;;;5047125;28;20777;-75
2022/08/17 10:28:48;;;;;;;6.40;5.53;;;28.60;99.90;;;;;;5046474;28;20834;-75
2022/08/17 10:31:23;;;;;;;7.63;5.70;;;28.50;99.90;;;;;;5042572;28;20518;-74
2022/08/17 10:34:18;;;;;;;6.20;5.70;;;28.50;99.90;;;;;;5047910;28;20446;-75
2022/08/17 10:36:53;;;;;;;5.67;4.90;;;28.50;99.90;;;;;;5043628;28;20574;-75
2022/08/17 10:39:30;;;;;;;8.80;5.53;;;28.60;99.90;;;;;;5050452;28;20470;-75
2022/08/17 10:42:02;;;;;;;8.50;5.60;;;28.50;99.90;;;;;;5049308;28;20873;-74
2022/08/17 10:44:44;;;;;;;6.10;4.67;;;28.60;99.90;;;;;;5051236;28;20447;-75
2022/08/17 10:47:16;;;;;;;7.90;5.40;;;28.40;99.90;;;;;;5047199;28;20456;-75
2022/08/17 10:49:48;;;;;;;15.03;5.33;;;28.10;99.90;;;;;;5051181;28;20470;-75
2022/08/17 10:52:47;;;;;;;13.60;5.97;;;27.90;99.90;;;;;;5053252;28;20873;-74
2022/08/17 10:55:16;;;;;;;5.90;4.90;;;27.90;99.90;;;;;;5048274;28;21066;-74
2022/08/17 10:57:45;;;;;;;6.33;5.00;;;27.70;99.90;;;;;;5046771;28;20542;-74
2022/08/17 11:00:34;;;;;;;9.90;6.90;;;27.70;99.90;;;;;;5048105;28;20642;-75
2022/08/17 11:03:02;;;;;;;5.70;5.20;;;27.50;99.90;;;;;;5047978;28;20462;-74
2022/08/17 11:05:51;;;;;;;9.90;6.20;;;27.50;99.90;;;;;;5046319;28;20531;-74
2022/08/17 11:08:44;;;;;;;7.67;6.10;;;27.60;99.90;;;;;;5047459;28;20615;-75
2022/08/17 11:11:39;;;;;;;9.63;7.33;;;27.50;99.90;;;;;;5049475;28;20466;-74
2022/08/17 11:14:20;;;;;;;9.63;6.73;;;27.40;99.90;;;;;;5047528;28;20489;-74
2022/08/17 11:17:00;;;;;;;10.27;6.83;;;27.40;99.90;;;;;;5045517;28;20457;-74
2022/08/17 11:20:09;;;;;;;9.57;7.60;;;27.10;99.90;;;;;;5049409;28;20471;-75
2022/08/17 11:23:18;;;;;;;10.80;6.90;;;27.10;99.90;;;;;;5051198;28;21054;-76
2022/08/17 11:25:50;;;;;;;7.20;6.50;;;26.70;99.90;;;;;;5047651;28;20534;-75
2022/08/17 11:28:21;;;;;;;11.40;8.17;;;26.70;99.90;;;;;;5048777;28;20431;-75
2022/08/17 11:30:52;;;;;;;13.33;8.70;;;26.60;99.90;;;;;;5044006;28;20478;-73
2022/08/17 11:33:55;;;;;;;9.10;7.07;;;26.60;99.90;;;;;;5047260;28;20453;-74
2022/08/17 11:37:00;;;;;;;11.97;8.30;;;26.70;99.90;;;;;;5047293;28;20494;-75
2022/08/17 11:39:43;;;;;;;9.77;7.97;;;26.50;99.90;;;;;;5050507;28;20466;-75
2022/08/17 11:42:26;;;;;;;42.40;10.53;;;26.20;99.90;;;;;;5048451;28;20944;-75
2022/08/17 11:44:57;;;;;;;9.40;8.00;;;26.30;99.90;;;;;;5049553;28;20782;-75
2022/08/17 11:54:09;;;;;;;10.27;8.27;;;26.10;99.90;;;;;;5046956;28;20454;-75
2022/08/17 11:56:41;;;;;;;17.30;11.00;;;26.20;99.90;;;;;;5047994;28;20824;-75
2022/08/17 11:59:46;;;;;;;12.57;10.00;;;26.30;99.90;;;;;;5044011;28;21006;-75
2022/08/17 12:02:33;;;;;;;11.17;9.97;;;26.30;99.90;;;;;;5047715;28;20466;-75
2022/08/17 12:05:10;;;;;;;13.53;11.50;;;26.20;99.90;;;;;;5045977;28;20480;-75
2022/08/17 12:07:42;;;;;;;14.17;11.77;;;26.20;99.90;;;;;;5046373;28;20443;-75
2022/08/17 12:10:11;;;;;;;13.30;11.90;;;26.30;99.90;;;;;;5048662;28;20477;-77
2022/08/17 12:12:42;;;;;;;14.80;12.30;;;26.30;99.90;;;;;;5048430;28;20968;-75
2022/08/17 12:15:17;;;;;;;13.93;10.90;;;26.30;99.90;;;;;;5043584;28;20452;-74
2022/08/17 12:17:52;;;;;;;16.47;11.53;;;26.20;99.90;;;;;;5048881;28;20481;-74
2022/08/17 12:20:22;;;;;;;16.03;13.80;;;26.30;99.90;;;;;;5039516;28;20482;-75
2022/08/17 12:22:59;;;;;;;17.23;13.33;;;26.20;99.90;;;;;;5044721;28;20453;-75
2022/08/17 12:25:33;;;;;;;15.27;13.67;;;26.30;99.90;;;;;;5045425;28;20440;-74
2022/08/17 12:28:02;;;;;;;28.13;15.30;;;26.30;99.90;;;;;;5043805;28;20453;-75
2022/08/17 12:30:29;;;;;;;19.23;13.73;;;26.40;99.90;;;;;;5045887;28;20478;-75
2022/08/17 12:32:56;;;;;;;17.80;13.47;;;26.40;99.90;;;;;;5048434;28;20952;-75
2022/08/17 12:35:28;;;;;;;23.13;14.50;;;26.40;99.90;;;;;;5045942;28;20525;-75
2022/08/17 12:37:56;;;;;;;14.67;12.97;;;26.60;99.90;;;;;;5044970;28;20534;-74
2022/08/17 12:40:26;;;;;;;20.10;15.00;;;26.60;99.90;;;;;;5044984;28;20785;-75
2022/08/17 12:42:59;;;;;;;16.57;14.10;;;27.10;99.90;;;;;;5044062;28;20437;-75
2022/08/17 12:45:30;;;;;;;19.07;13.80;;;27.50;99.90;;;;;;5048125;28;20953;-74
2022/08/17 12:48:06;;;;;;;16.13;12.33;;;28.10;99.90;;;;;;5045277;28;20558;-75
2022/08/17 12:50:34;;;;;;;19.90;15.67;;;28.20;99.90;;;;;;5043051;28;20557;-74
2022/08/17 12:53:01;;;;;;;28.20;16.30;;;28.40;99.90;;;;;;5045965;28;20530;-75
2022/08/17 12:55:29;;;;;;;23.30;15.77;;;28.30;99.90;;;;;;5047399;28;20815;-74
2022/08/17 12:57:58;;;;;;;18.13;15.47;;;28.20;99.90;;;;;;5044733;28;20480;-75
2022/08/17 13:00:29;;;;;;;20.80;17.30;;;28.00;99.90;;;;;;5044190;28;20842;-75
2022/08/17 13:03:01;;;;;;;21.97;14.93;;;28.20;99.90;;;;;;5043514;28;20451;-74
2022/08/17 13:05:30;;;;;;;17.37;15.47;;;28.10;99.90;;;;;;5047614;28;20467;-76
2022/08/17 13:07:59;;;;;;;21.13;16.17;;;28.60;99.90;;;;;;5047945;28;20443;-76
2022/08/17 13:10:28;;;;;;;16.87;14.90;;;28.80;99.90;;;;;;5048694;28;20511;-76
2022/08/17 13:12:56;;;;;;;18.07;16.20;;;28.70;99.90;;;;;;5047955;28;20518;-74
2022/08/17 13:15:30;;;;;;;22.47;16.53;;;28.60;99.90;;;;;;5040730;28;20486;-75
2022/08/17 13:18:00;;;;;;;20.53;17.30;;;29.00;99.90;;;;;;5047337;28;20510;-75
2022/08/17 13:20:27;;;;;;;15.80;14.13;;;29.60;99.90;;;;;;5045369;28;21110;-76
2022/08/17 13:22:56;;;;;;;19.40;16.70;;;31.00;99.90;;;;;;5039408;28;20455;-76
2022/08/17 13:25:24;;;;;;;17.53;15.10;;;30.70;99.90;;;;;;5044355;28;20452;-74
2022/08/17 13:27:53;;;;;;;18.47;15.53;;;31.10;99.90;;;;;;5047975;28;20440;-76
2022/08/17 13:30:23;;;;;;;17.30;14.43;;;32.10;99.90;;;;;;5041351;28;20479;-76
2022/08/17 13:32:52;;;;;;;26.03;16.93;;;32.80;99.90;;;;;;5045377;28;20448;-76
2022/08/17 13:35:43;;;;;;;19.07;15.87;;;32.30;99.90;;;;;;5045202;28;20452;-76